sensor_id;sensor_type;location;lat;lon;timestamp;P1;durP1;ratioP1;P2;durP2;ratioP2
72095;SDS011;59968;51.084;16.748;2022-10-16T00:02:26;14.10;;;8.60;;
72095;SDS011;59968;51.084;16.748;2022-10-16T00:04:54;11.00;;;6.60;;
72095;SDS011;59968;51.084;16.748;2022-10-16T00:07:22;10.50;;;6.70;;
72095;SDS011;59968;51.084;16.748;2022-10-16T00:09:51;11.10;;;7.40;;
72095;SDS011;59968;51.084;16.748;2022-10-16T00:12:19;11.50;;;7.00;;
72095;SDS011;59968;51.084;16.748;2022-10-16T00:14:47;11.90;;;7.80;;
72095;SDS011;59968;51.084;16.748;2022-10-16T00:17:15;11.40;;;7.00;;
72095;SDS011;59968;51.084;16.748;2022-10-16T00:19:43;11.00;;;7.00;;
72095;SDS011;59968;51.084;16.748;2022-10-16T00:22:11;12.10;;;6.90;;
72095;SDS011;59968;51.084;16.748;2022-10-16T00:24:39;11.00;;;6.70;;
72095;SDS011;59968;51.084;16.748;2022-10-16T00:27:07;10.30;;;6.60;;
72095;SDS011;59968;51.084;16.748;2022-10-16T00:29:35;11.30;;;7.00;;
72095;SDS011;59968;51.084;16.748;2022-10-16T00:32:03;10.70;;;6.70;;
72095;SDS011;59968;51.084;16.748;2022-10-16T00:34:31;12.10;;;7.60;;
72095;SDS011;59968;51.084;16.748;2022-10-16T00:36:59;11.30;;;7.00;;
72095;SDS011;59968;51.084;16.748;2022-10-16T00:39:27;11.30;;;6.60;;
72095;SDS011;59968;51.084;16.748;2022-10-16T00:41:55;10.30;;;7.10;;
72095;SDS011;59968;51.084;16.748;2022-10-16T00:47:19;9.90;;;6.40;;
72095;SDS011;59968;51.084;16.748;2022-10-16T00:50:26;9.90;;;6.10;;
72095;SDS011;59968;51.084;16.748;2022-10-16T00:53:00;9.40;;;6.20;;
72095;SDS011;59968;51.084;16.748;2022-10-16T00:55:30;10.10;;;6.20;;
72095;SDS011;59968;51.084;16.748;2022-10-16T00:57:59;10.50;;;6.50;;
72095;SDS011;59968;51.084;16.748;2022-10-16T01:00:27;9.50;;;6.50;;
72095;SDS011;59968;51.084;16.748;2022-10-16T01:02:56;10.60;;;6.50;;
72095;SDS011;59968;51.084;16.748;2022-10-16T01:05:33;10.20;;;6.30;;
72095;SDS011;59968;51.084;16.748;2022-10-16T01:08:12;12.50;;;6.90;;
72095;SDS011;59968;51.084;16.748;2022-10-16T01:11:00;9.30;;;6.00;;
72095;SDS011;59968;51.084;16.748;2022-10-16T01:13:43;9.20;;;5.50;;
72095;SDS011;59968;51.084;16.748;2022-10-16T01:16:23;8.20;;;5.20;;
72095;SDS011;59968;51.084;16.748;2022-10-16T01:19:01;8.00;;;5.40;;
72095;SDS011;59968;51.084;16.748;2022-10-16T01:21:37;9.60;;;5.80;;
72095;SDS011;59968;51.084;16.748;2022-10-16T01:29:45;8.40;;;5.50;;
72095;SDS011;59968;51.084;16.748;2022-10-16T01:32:40;8.20;;;5.50;;
72095;SDS011;59968;51.084;16.748;2022-10-16T01:38:21;8.40;;;5.60;;
72095;SDS011;59968;51.084;16.748;2022-10-16T01:41:00;8.90;;;5.30;;
72095;SDS011;59968;51.084;16.748;2022-10-16T01:43:39;10.70;;;5.30;;
72095;SDS011;59968;51.084;16.748;2022-10-16T01:46:13;7.80;;;5.50;;
72095;SDS011;59968;51.084;16.748;2022-10-16T01:48:44;10.80;;;5.50;;
72095;SDS011;59968;51.084;16.748;2022-10-16T01:51:14;12.30;;;5.90;;
72095;SDS011;59968;51.084;16.748;2022-10-16T01:53:46;8.70;;;5.40;;
72095;SDS011;59968;51.084;16.748;2022-10-16T01:56:18;8.20;;;5.40;;
72095;SDS011;59968;51.084;16.748;2022-10-16T01:58:54;7.70;;;5.20;;
72095;SDS011;59968;51.084;16.748;2022-10-16T02:01:26;7.40;;;4.70;;
72095;SDS011;59968;51.084;16.748;2022-10-16T02:03:58;7.70;;;5.00;;
72095;SDS011;59968;51.084;16.748;2022-10-16T02:06:31;9.20;;;5.30;;
72095;SDS011;59968;51.084;16.748;2022-10-16T02:08:59;10.80;;;5.90;;
72095;SDS011;59968;51.084;16.748;2022-10-16T02:11:27;9.70;;;5.40;;
72095;SDS011;59968;51.084;16.748;2022-10-16T02:13:58;11.30;;;5.30;;
72095;SDS011;59968;51.084;16.748;2022-10-16T02:17:09;8.50;;;5.40;;
72095;SDS011;59968;51.084;16.748;2022-10-16T02:19:23;8.10;;;5.30;;
72095;SDS011;59968;51.084;16.748;2022-10-16T02:21:59;8.50;;;5.30;;
72095;SDS011;59968;51.084;16.748;2022-10-16T02:24:54;8.90;;;4.70;;
72095;SDS011;59968;51.084;16.748;2022-10-16T02:33:16;9.20;;;5.40;;
72095;SDS011;59968;51.084;16.748;2022-10-16T02:35:46;9.80;;;5.90;;
72095;SDS011;59968;51.084;16.748;2022-10-16T02:38:18;9.00;;;5.30;;
72095;SDS011;59968;51.084;16.748;2022-10-16T02:40:47;8.40;;;5.30;;
72095;SDS011;59968;51.084;16.748;2022-10-16T02:43:16;8.10;;;5.30;;
72095;SDS011;59968;51.084;16.748;2022-10-16T02:45:44;8.70;;;5.60;;
72095;SDS011;59968;51.084;16.748;2022-10-16T02:48:13;9.60;;;5.00;;
72095;SDS011;59968;51.084;16.748;2022-10-16T02:50:40;8.50;;;4.90;;
72095;SDS011;59968;51.084;16.748;2022-10-16T02:53:08;8.50;;;5.30;;
72095;SDS011;59968;51.084;16.748;2022-10-16T02:55:36;7.90;;;4.70;;
72095;SDS011;59968;51.084;16.748;2022-10-16T02:58:04;8.50;;;4.70;;
72095;SDS011;59968;51.084;16.748;2022-10-16T03:00:32;8.30;;;5.20;;
72095;SDS011;59968;51.084;16.748;2022-10-16T03:03:00;9.30;;;4.50;;
72095;SDS011;59968;51.084;16.748;2022-10-16T03:05:29;7.50;;;4.70;;
72095;SDS011;59968;51.084;16.748;2022-10-16T03:07:57;6.30;;;4.40;;
72095;SDS011;59968;51.084;16.748;2022-10-16T03:10:27;8.30;;;5.40;;
72095;SDS011;59968;51.084;16.748;2022-10-16T03:12:55;9.00;;;5.70;;
72095;SDS011;59968;51.084;16.748;2022-10-16T03:15:23;10.20;;;5.40;;
72095;SDS011;59968;51.084;16.748;2022-10-16T03:17:51;8.50;;;5.10;;
72095;SDS011;59968;51.084;16.748;2022-10-16T03:20:19;10.50;;;4.90;;
72095;SDS011;59968;51.084;16.748;2022-10-16T03:22:48;8.40;;;4.90;;
72095;SDS011;59968;51.084;16.748;2022-10-16T03:25:16;8.20;;;5.00;;
72095;SDS011;59968;51.084;16.748;2022-10-16T03:27:44;9.30;;;5.30;;
72095;SDS011;59968;51.084;16.748;2022-10-16T03:30:12;8.60;;;5.00;;
72095;SDS011;59968;51.084;16.748;2022-10-16T03:32:40;7.50;;;4.90;;
72095;SDS011;59968;51.084;16.748;2022-10-16T03:35:08;7.20;;;4.70;;
72095;SDS011;59968;51.084;16.748;2022-10-16T03:37:36;9.40;;;5.30;;
72095;SDS011;59968;51.084;16.748;2022-10-16T03:40:04;8.50;;;5.40;;
72095;SDS011;59968;51.084;16.748;2022-10-16T03:42:33;10.30;;;5.60;;
72095;SDS011;59968;51.084;16.748;2022-10-16T03:45:01;9.80;;;5.40;;
72095;SDS011;59968;51.084;16.748;2022-10-16T03:47:29;8.70;;;5.10;;
72095;SDS011;59968;51.084;16.748;2022-10-16T03:49:57;7.30;;;5.10;;
72095;SDS011;59968;51.084;16.748;2022-10-16T03:52:25;9.00;;;5.10;;
72095;SDS011;59968;51.084;16.748;2022-10-16T03:54:53;8.70;;;5.00;;
72095;SDS011;59968;51.084;16.748;2022-10-16T03:57:21;8.20;;;5.70;;
72095;SDS011;59968;51.084;16.748;2022-10-16T03:59:49;7.80;;;5.40;;
72095;SDS011;59968;51.084;16.748;2022-10-16T04:02:18;7.30;;;4.50;;
72095;SDS011;59968;51.084;16.748;2022-10-16T04:04:46;9.50;;;4.60;;
72095;SDS011;59968;51.084;16.748;2022-10-16T04:07:14;7.70;;;4.70;;
72095;SDS011;59968;51.084;16.748;2022-10-16T04:09:42;7.60;;;4.80;;
72095;SDS011;59968;51.084;16.748;2022-10-16T04:12:10;7.30;;;5.00;;
72095;SDS011;59968;51.084;16.748;2022-10-16T04:14:38;7.90;;;5.30;;
72095;SDS011;59968;51.084;16.748;2022-10-16T04:17:06;8.10;;;5.10;;
72095;SDS011;59968;51.084;16.748;2022-10-16T04:19:34;7.70;;;7.00;;
72095;SDS011;59968;51.084;16.748;2022-10-16T04:22:02;7.00;;;4.90;;
72095;SDS011;59968;51.084;16.748;2022-10-16T04:24:30;8.30;;;5.00;;
72095;SDS011;59968;51.084;16.748;2022-10-16T04:26:58;7.70;;;4.60;;
72095;SDS011;59968;51.084;16.748;2022-10-16T04:29:26;8.10;;;4.40;;
72095;SDS011;59968;51.084;16.748;2022-10-16T04:31:54;7.70;;;4.80;;
72095;SDS011;59968;51.084;16.748;2022-10-16T04:34:22;7.20;;;4.90;;
72095;SDS011;59968;51.084;16.748;2022-10-16T04:36:50;9.00;;;4.70;;
72095;SDS011;59968;51.084;16.748;2022-10-16T04:39:18;8.40;;;4.70;;
72095;SDS011;59968;51.084;16.748;2022-10-16T04:41:46;6.90;;;4.40;;
72095;SDS011;59968;51.084;16.748;2022-10-16T04:44:14;7.60;;;4.70;;
72095;SDS011;59968;51.084;16.748;2022-10-16T04:46:42;7.30;;;4.60;;
72095;SDS011;59968;51.084;16.748;2022-10-16T04:49:11;8.50;;;4.80;;
72095;SDS011;59968;51.084;16.748;2022-10-16T04:51:40;7.70;;;4.30;;
72095;SDS011;59968;51.084;16.748;2022-10-16T04:54:08;7.00;;;4.30;;
72095;SDS011;59968;51.084;16.748;2022-10-16T04:56:37;8.30;;;4.20;;
72095;SDS011;59968;51.084;16.748;2022-10-16T04:59:10;11.90;;;4.60;;
72095;SDS011;59968;51.084;16.748;2022-10-16T05:01:38;7.00;;;4.30;;
72095;SDS011;59968;51.084;16.748;2022-10-16T05:04:06;8.90;;;5.40;;
72095;SDS011;59968;51.084;16.748;2022-10-16T05:06:35;7.80;;;4.70;;
72095;SDS011;59968;51.084;16.748;2022-10-16T05:09:04;7.90;;;5.00;;
72095;SDS011;59968;51.084;16.748;2022-10-16T05:11:33;8.80;;;4.50;;
72095;SDS011;59968;51.084;16.748;2022-10-16T05:14:01;8.80;;;4.90;;
72095;SDS011;59968;51.084;16.748;2022-10-16T05:16:30;9.80;;;4.80;;
72095;SDS011;59968;51.084;16.748;2022-10-16T05:18:59;8.10;;;4.00;;
72095;SDS011;59968;51.084;16.748;2022-10-16T05:21:47;8.10;;;4.90;;
72095;SDS011;59968;51.084;16.748;2022-10-16T05:24:15;8.20;;;5.10;;
72095;SDS011;59968;51.084;16.748;2022-10-16T05:26:43;9.00;;;5.40;;
72095;SDS011;59968;51.084;16.748;2022-10-16T05:29:11;11.80;;;5.20;;
72095;SDS011;59968;51.084;16.748;2022-10-16T05:31:39;9.00;;;5.50;;
72095;SDS011;59968;51.084;16.748;2022-10-16T05:34:07;9.90;;;5.30;;
72095;SDS011;59968;51.084;16.748;2022-10-16T05:36:35;7.00;;;4.60;;
72095;SDS011;59968;51.084;16.748;2022-10-16T05:39:04;7.50;;;4.50;;
72095;SDS011;59968;51.084;16.748;2022-10-16T05:41:32;7.00;;;4.30;;
72095;SDS011;59968;51.084;16.748;2022-10-16T05:44:03;7.20;;;4.50;;
72095;SDS011;59968;51.084;16.748;2022-10-16T05:46:32;8.00;;;4.70;;
72095;SDS011;59968;51.084;16.748;2022-10-16T05:49:02;8.60;;;4.80;;
72095;SDS011;59968;51.084;16.748;2022-10-16T05:51:30;8.20;;;4.80;;
72095;SDS011;59968;51.084;16.748;2022-10-16T05:53:59;8.90;;;4.70;;
72095;SDS011;59968;51.084;16.748;2022-10-16T05:56:27;7.70;;;4.40;;
72095;SDS011;59968;51.084;16.748;2022-10-16T05:58:55;8.70;;;4.50;;
72095;SDS011;59968;51.084;16.748;2022-10-16T06:01:23;7.40;;;4.50;;
72095;SDS011;59968;51.084;16.748;2022-10-16T06:03:52;8.40;;;5.20;;
72095;SDS011;59968;51.084;16.748;2022-10-16T06:06:21;8.50;;;4.80;;
72095;SDS011;59968;51.084;16.748;2022-10-16T06:08:54;7.40;;;4.70;;
72095;SDS011;59968;51.084;16.748;2022-10-16T06:11:25;7.50;;;4.80;;
72095;SDS011;59968;51.084;16.748;2022-10-16T06:13:56;9.60;;;4.90;;
72095;SDS011;59968;51.084;16.748;2022-10-16T06:16:26;7.70;;;4.40;;
72095;SDS011;59968;51.084;16.748;2022-10-16T06:18:55;8.10;;;5.30;;
72095;SDS011;59968;51.084;16.748;2022-10-16T06:21:23;7.90;;;4.50;;
72095;SDS011;59968;51.084;16.748;2022-10-16T06:23:53;6.20;;;3.90;;
72095;SDS011;59968;51.084;16.748;2022-10-16T06:26:24;7.20;;;4.30;;
72095;SDS011;59968;51.084;16.748;2022-10-16T06:28:54;6.90;;;4.60;;
72095;SDS011;59968;51.084;16.748;2022-10-16T06:31:24;6.10;;;4.00;;
72095;SDS011;59968;51.084;16.748;2022-10-16T06:33:58;9.20;;;4.10;;
72095;SDS011;59968;51.084;16.748;2022-10-16T06:36:27;7.80;;;4.00;;
72095;SDS011;59968;51.084;16.748;2022-10-16T06:38:55;6.50;;;4.20;;
72095;SDS011;59968;51.084;16.748;2022-10-16T06:41:24;7.60;;;4.20;;
72095;SDS011;59968;51.084;16.748;2022-10-16T06:43:52;6.30;;;3.90;;
72095;SDS011;59968;51.084;16.748;2022-10-16T06:46:21;6.00;;;3.60;;
72095;SDS011;59968;51.084;16.748;2022-10-16T06:48:52;6.10;;;5.00;;
72095;SDS011;59968;51.084;16.748;2022-10-16T06:51:21;5.70;;;3.60;;
72095;SDS011;59968;51.084;16.748;2022-10-16T06:53:52;5.80;;;3.70;;
72095;SDS011;59968;51.084;16.748;2022-10-16T06:56:33;5.30;;;3.10;;
72095;SDS011;59968;51.084;16.748;2022-10-16T06:59:04;6.30;;;3.10;;
72095;SDS011;59968;51.084;16.748;2022-10-16T07:01:32;4.60;;;3.10;;
72095;SDS011;59968;51.084;16.748;2022-10-16T07:04:01;5.10;;;3.20;;
72095;SDS011;59968;51.084;16.748;2022-10-16T07:06:31;6.00;;;3.70;;
72095;SDS011;59968;51.084;16.748;2022-10-16T07:09:02;7.00;;;4.00;;
72095;SDS011;59968;51.084;16.748;2022-10-16T07:11:32;6.70;;;3.50;;
72095;SDS011;59968;51.084;16.748;2022-10-16T07:14:01;5.60;;;3.50;;
72095;SDS011;59968;51.084;16.748;2022-10-16T07:16:30;6.40;;;3.70;;
72095;SDS011;59968;51.084;16.748;2022-10-16T07:19:00;7.10;;;4.00;;
72095;SDS011;59968;51.084;16.748;2022-10-16T07:21:31;7.30;;;4.20;;
72095;SDS011;59968;51.084;16.748;2022-10-16T07:24:05;6.30;;;4.10;;
72095;SDS011;59968;51.084;16.748;2022-10-16T07:26:40;6.90;;;4.00;;
72095;SDS011;59968;51.084;16.748;2022-10-16T07:29:14;6.90;;;4.30;;
72095;SDS011;59968;51.084;16.748;2022-10-16T07:31:45;6.20;;;4.00;;
72095;SDS011;59968;51.084;16.748;2022-10-16T07:34:16;8.90;;;4.20;;
72095;SDS011;59968;51.084;16.748;2022-10-16T07:36:48;6.30;;;4.00;;
72095;SDS011;59968;51.084;16.748;2022-10-16T07:39:18;7.40;;;4.60;;
72095;SDS011;59968;51.084;16.748;2022-10-16T07:41:47;6.60;;;4.20;;
72095;SDS011;59968;51.084;16.748;2022-10-16T07:44:17;6.00;;;4.00;;
72095;SDS011;59968;51.084;16.748;2022-10-16T07:46:46;6.10;;;4.10;;
72095;SDS011;59968;51.084;16.748;2022-10-16T07:49:17;5.20;;;3.60;;
72095;SDS011;59968;51.084;16.748;2022-10-16T07:51:47;6.40;;;3.90;;
72095;SDS011;59968;51.084;16.748;2022-10-16T07:54:15;5.00;;;3.40;;
72095;SDS011;59968;51.084;16.748;2022-10-16T07:56:43;5.60;;;4.10;;
72095;SDS011;59968;51.084;16.748;2022-10-16T07:59:13;4.80;;;3.70;;
72095;SDS011;59968;51.084;16.748;2022-10-16T08:01:41;5.20;;;3.50;;
72095;SDS011;59968;51.084;16.748;2022-10-16T08:04:12;7.10;;;3.70;;
72095;SDS011;59968;51.084;16.748;2022-10-16T08:06:41;6.10;;;3.80;;
72095;SDS011;59968;51.084;16.748;2022-10-16T08:09:09;5.90;;;3.80;;
72095;SDS011;59968;51.084;16.748;2022-10-16T08:11:37;5.20;;;3.50;;
72095;SDS011;59968;51.084;16.748;2022-10-16T08:14:06;6.00;;;3.60;;
72095;SDS011;59968;51.084;16.748;2022-10-16T08:16:34;5.20;;;3.70;;
72095;SDS011;59968;51.084;16.748;2022-10-16T08:19:02;6.70;;;3.60;;
72095;SDS011;59968;51.084;16.748;2022-10-16T08:21:34;5.00;;;3.40;;
72095;SDS011;59968;51.084;16.748;2022-10-16T08:24:02;6.00;;;3.80;;
72095;SDS011;59968;51.084;16.748;2022-10-16T08:26:32;6.10;;;4.00;;
72095;SDS011;59968;51.084;16.748;2022-10-16T08:29:05;6.00;;;4.00;;
72095;SDS011;59968;51.084;16.748;2022-10-16T08:31:34;6.50;;;3.80;;
72095;SDS011;59968;51.084;16.748;2022-10-16T08:34:03;5.90;;;3.60;;
72095;SDS011;59968;51.084;16.748;2022-10-16T08:36:31;6.70;;;4.00;;
72095;SDS011;59968;51.084;16.748;2022-10-16T08:39:00;5.10;;;3.40;;
72095;SDS011;59968;51.084;16.748;2022-10-16T08:49:32;4.00;;;3.10;;
72095;SDS011;59968;51.084;16.748;2022-10-16T08:52:01;5.60;;;3.20;;
72095;SDS011;59968;51.084;16.748;2022-10-16T08:54:37;3.60;;;2.40;;
72095;SDS011;59968;51.084;16.748;2022-10-16T08:57:12;4.50;;;3.00;;
72095;SDS011;59968;51.084;16.748;2022-10-16T08:59:51;3.50;;;2.70;;
72095;SDS011;59968;51.084;16.748;2022-10-16T09:02:36;4.80;;;2.80;;
72095;SDS011;59968;51.084;16.748;2022-10-16T09:10:45;3.50;;;2.70;;
72095;SDS011;59968;51.084;16.748;2022-10-16T09:21:43;4.40;;;2.80;;
72095;SDS011;59968;51.084;16.748;2022-10-16T09:24:20;3.80;;;3.00;;
72095;SDS011;59968;51.084;16.748;2022-10-16T09:26:55;3.90;;;3.20;;
72095;SDS011;59968;51.084;16.748;2022-10-16T09:29:24;3.80;;;2.70;;
72095;SDS011;59968;51.084;16.748;2022-10-16T09:31:53;3.70;;;3.00;;
72095;SDS011;59968;51.084;16.748;2022-10-16T09:37:05;4.50;;;3.50;;
72095;SDS011;59968;51.084;16.748;2022-10-16T09:39:47;3.40;;;2.90;;
72095;SDS011;59968;51.084;16.748;2022-10-16T09:42:23;4.10;;;3.30;;
72095;SDS011;59968;51.084;16.748;2022-10-16T09:44:58;3.10;;;2.60;;
72095;SDS011;59968;51.084;16.748;2022-10-16T09:47:27;2.90;;;2.20;;
72095;SDS011;59968;51.084;16.748;2022-10-16T09:49:58;4.10;;;3.00;;
72095;SDS011;59968;51.084;16.748;2022-10-16T09:52:30;4.10;;;3.00;;
72095;SDS011;59968;51.084;16.748;2022-10-16T09:54:59;4.30;;;3.20;;
72095;SDS011;59968;51.084;16.748;2022-10-16T09:57:30;4.20;;;2.50;;
72095;SDS011;59968;51.084;16.748;2022-10-16T09:59:58;3.80;;;2.90;;
72095;SDS011;59968;51.084;16.748;2022-10-16T10:05:02;3.50;;;3.10;;
72095;SDS011;59968;51.084;16.748;2022-10-16T10:07:34;4.00;;;3.10;;
72095;SDS011;59968;51.084;16.748;2022-10-16T10:10:28;5.30;;;3.40;;
72095;SDS011;59968;51.084;16.748;2022-10-16T10:12:57;3.00;;;2.70;;
72095;SDS011;59968;51.084;16.748;2022-10-16T10:15:25;4.00;;;2.80;;
72095;SDS011;59968;51.084;16.748;2022-10-16T10:17:57;3.50;;;2.70;;
72095;SDS011;59968;51.084;16.748;2022-10-16T10:20:30;3.50;;;3.20;;
72095;SDS011;59968;51.084;16.748;2022-10-16T10:23:22;7.30;;;2.70;;
72095;SDS011;59968;51.084;16.748;2022-10-16T10:28:51;4.30;;;3.10;;
72095;SDS011;59968;51.084;16.748;2022-10-16T10:37:11;4.90;;;3.40;;
72095;SDS011;59968;51.084;16.748;2022-10-16T10:46:02;3.80;;;3.30;;
72095;SDS011;59968;51.084;16.748;2022-10-16T10:51:12;5.20;;;3.30;;
72095;SDS011;59968;51.084;16.748;2022-10-16T10:56:57;4.00;;;3.00;;
72095;SDS011;59968;51.084;16.748;2022-10-16T11:05:43;3.70;;;2.70;;
72095;SDS011;59968;51.084;16.748;2022-10-16T11:08:17;2.80;;;2.50;;
72095;SDS011;59968;51.084;16.748;2022-10-16T11:10:58;3.50;;;2.50;;
72095;SDS011;59968;51.084;16.748;2022-10-16T11:13:46;3.20;;;2.60;;
72095;SDS011;59968;51.084;16.748;2022-10-16T11:16:26;4.60;;;3.40;;
72095;SDS011;59968;51.084;16.748;2022-10-16T11:19:12;4.50;;;2.70;;
72095;SDS011;59968;51.084;16.748;2022-10-16T11:28:05;3.60;;;2.90;;
72095;SDS011;59968;51.084;16.748;2022-10-16T11:33:40;4.80;;;3.30;;
72095;SDS011;59968;51.084;16.748;2022-10-16T11:39:22;4.30;;;2.80;;
72095;SDS011;59968;51.084;16.748;2022-10-16T11:42:13;4.40;;;2.90;;
72095;SDS011;59968;51.084;16.748;2022-10-16T11:50:31;3.20;;;2.80;;
72095;SDS011;59968;51.084;16.748;2022-10-16T11:55:58;2.80;;;2.50;;
72095;SDS011;59968;51.084;16.748;2022-10-16T12:04:12;3.00;;;2.40;;
72095;SDS011;59968;51.084;16.748;2022-10-16T12:07:05;4.10;;;2.70;;
72095;SDS011;59968;51.084;16.748;2022-10-16T12:09:38;3.80;;;3.00;;
72095;SDS011;59968;51.084;16.748;2022-10-16T12:12:54;3.40;;;2.50;;
72095;SDS011;59968;51.084;16.748;2022-10-16T12:15:24;3.80;;;2.90;;
72095;SDS011;59968;51.084;16.748;2022-10-16T12:18:21;4.80;;;3.50;;
72095;SDS011;59968;51.084;16.748;2022-10-16T12:20:56;4.50;;;3.10;;
72095;SDS011;59968;51.084;16.748;2022-10-16T12:23:38;3.90;;;3.00;;
72095;SDS011;59968;51.084;16.748;2022-10-16T12:26:27;4.90;;;3.20;;
72095;SDS011;59968;51.084;16.748;2022-10-16T12:32:04;2.90;;;2.50;;
72095;SDS011;59968;51.084;16.748;2022-10-16T12:35:19;3.30;;;2.90;;
72095;SDS011;59968;51.084;16.748;2022-10-16T12:38:08;3.60;;;3.10;;
72095;SDS011;59968;51.084;16.748;2022-10-16T12:40:44;3.90;;;3.10;;
72095;SDS011;59968;51.084;16.748;2022-10-16T12:48:38;4.80;;;3.30;;
72095;SDS011;59968;51.084;16.748;2022-10-16T12:51:35;5.20;;;3.00;;
72095;SDS011;59968;51.084;16.748;2022-10-16T12:54:17;4.10;;;3.10;;
72095;SDS011;59968;51.084;16.748;2022-10-16T12:57:10;4.90;;;3.90;;
72095;SDS011;59968;51.084;16.748;2022-10-16T13:08:38;4.70;;;3.90;;
72095;SDS011;59968;51.084;16.748;2022-10-16T13:20:35;4.60;;;3.80;;
72095;SDS011;59968;51.084;16.748;2022-10-16T13:23:32;4.80;;;3.60;;
72095;SDS011;59968;51.084;16.748;2022-10-16T13:26:35;4.50;;;3.30;;
72095;SDS011;59968;51.084;16.748;2022-10-16T13:29:15;4.50;;;3.30;;
72095;SDS011;59968;51.084;16.748;2022-10-16T13:31:49;4.80;;;3.10;;
72095;SDS011;59968;51.084;16.748;2022-10-16T13:34:21;3.60;;;2.80;;
72095;SDS011;59968;51.084;16.748;2022-10-16T13:36:51;3.70;;;3.00;;
72095;SDS011;59968;51.084;16.748;2022-10-16T13:39:25;4.20;;;2.90;;
72095;SDS011;59968;51.084;16.748;2022-10-16T13:42:03;3.50;;;2.90;;
72095;SDS011;59968;51.084;16.748;2022-10-16T13:44:47;4.60;;;3.50;;
72095;SDS011;59968;51.084;16.748;2022-10-16T13:47:21;4.10;;;3.30;;
72095;SDS011;59968;51.084;16.748;2022-10-16T13:50:03;4.40;;;3.30;;
72095;SDS011;59968;51.084;16.748;2022-10-16T13:52:33;3.60;;;3.20;;
72095;SDS011;59968;51.084;16.748;2022-10-16T13:55:01;3.70;;;3.10;;
72095;SDS011;59968;51.084;16.748;2022-10-16T13:57:30;3.00;;;2.70;;
72095;SDS011;59968;51.084;16.748;2022-10-16T14:00:02;3.90;;;3.10;;
72095;SDS011;59968;51.084;16.748;2022-10-16T14:02:58;5.00;;;3.20;;
72095;SDS011;59968;51.084;16.748;2022-10-16T14:05:49;3.80;;;3.10;;
72095;SDS011;59968;51.084;16.748;2022-10-16T14:08:25;4.80;;;3.10;;
72095;SDS011;59968;51.084;16.748;2022-10-16T14:11:01;4.30;;;3.10;;
72095;SDS011;59968;51.084;16.748;2022-10-16T14:13:43;4.80;;;3.10;;
72095;SDS011;59968;51.084;16.748;2022-10-16T14:16:21;3.60;;;3.00;;
72095;SDS011;59968;51.084;16.748;2022-10-16T14:19:02;3.60;;;3.00;;
72095;SDS011;59968;51.084;16.748;2022-10-16T14:21:41;4.30;;;3.00;;
72095;SDS011;59968;51.084;16.748;2022-10-16T14:24:21;4.40;;;2.80;;
72095;SDS011;59968;51.084;16.748;2022-10-16T14:27:20;8.70;;;3.90;;
72095;SDS011;59968;51.084;16.748;2022-10-16T14:32:37;5.00;;;2.90;;
72095;SDS011;59968;51.084;16.748;2022-10-16T14:35:24;4.70;;;3.40;;
72095;SDS011;59968;51.084;16.748;2022-10-16T14:38:05;3.70;;;2.90;;
72095;SDS011;59968;51.084;16.748;2022-10-16T14:40:48;6.20;;;3.50;;
72095;SDS011;59968;51.084;16.748;2022-10-16T14:43:22;3.80;;;3.30;;
72095;SDS011;59968;51.084;16.748;2022-10-16T14:46:00;3.80;;;3.00;;
72095;SDS011;59968;51.084;16.748;2022-10-16T14:48:40;4.90;;;3.70;;
72095;SDS011;59968;51.084;16.748;2022-10-16T14:51:43;4.30;;;3.10;;
72095;SDS011;59968;51.084;16.748;2022-10-16T14:54:16;4.20;;;3.20;;
72095;SDS011;59968;51.084;16.748;2022-10-16T14:56:51;6.40;;;3.50;;
72095;SDS011;59968;51.084;16.748;2022-10-16T15:02:47;4.10;;;3.30;;
72095;SDS011;59968;51.084;16.748;2022-10-16T15:05:01;5.10;;;3.70;;
72095;SDS011;59968;51.084;16.748;2022-10-16T15:07:53;6.50;;;3.60;;
72095;SDS011;59968;51.084;16.748;2022-10-16T15:10:27;9.60;;;3.80;;
72095;SDS011;59968;51.084;16.748;2022-10-16T15:13:08;4.10;;;3.10;;
72095;SDS011;59968;51.084;16.748;2022-10-16T15:15:47;4.60;;;3.30;;
72095;SDS011;59968;51.084;16.748;2022-10-16T15:18:20;3.90;;;3.00;;
72095;SDS011;59968;51.084;16.748;2022-10-16T15:20:53;5.20;;;3.30;;
72095;SDS011;59968;51.084;16.748;2022-10-16T15:23:26;4.30;;;3.30;;
72095;SDS011;59968;51.084;16.748;2022-10-16T15:25:59;3.30;;;2.80;;
72095;SDS011;59968;51.084;16.748;2022-10-16T15:28:35;5.30;;;3.20;;
72095;SDS011;59968;51.084;16.748;2022-10-16T15:31:24;4.80;;;3.40;;
72095;SDS011;59968;51.084;16.748;2022-10-16T15:34:12;5.50;;;3.20;;
72095;SDS011;59968;51.084;16.748;2022-10-16T15:36:45;4.40;;;3.70;;
72095;SDS011;59968;51.084;16.748;2022-10-16T15:39:18;4.70;;;3.80;;
72095;SDS011;59968;51.084;16.748;2022-10-16T15:42:04;4.30;;;3.30;;
72095;SDS011;59968;51.084;16.748;2022-10-16T15:44:45;6.60;;;3.80;;
72095;SDS011;59968;51.084;16.748;2022-10-16T15:47:19;4.40;;;3.60;;
72095;SDS011;59968;51.084;16.748;2022-10-16T15:49:52;4.70;;;3.30;;
72095;SDS011;59968;51.084;16.748;2022-10-16T15:52:24;5.90;;;3.10;;
72095;SDS011;59968;51.084;16.748;2022-10-16T15:55:05;5.40;;;3.70;;
72095;SDS011;59968;51.084;16.748;2022-10-16T15:57:45;5.40;;;3.90;;
72095;SDS011;59968;51.084;16.748;2022-10-16T16:00:24;5.20;;;3.90;;
72095;SDS011;59968;51.084;16.748;2022-10-16T16:02:58;5.50;;;4.10;;
72095;SDS011;59968;51.084;16.748;2022-10-16T16:05:41;5.90;;;4.20;;
72095;SDS011;59968;51.084;16.748;2022-10-16T16:08:23;6.80;;;4.60;;
72095;SDS011;59968;51.084;16.748;2022-10-16T16:11:09;7.00;;;4.90;;
72095;SDS011;59968;51.084;16.748;2022-10-16T16:13:40;8.00;;;5.20;;
72095;SDS011;59968;51.084;16.748;2022-10-16T16:16:21;8.10;;;5.50;;
72095;SDS011;59968;51.084;16.748;2022-10-16T16:18:54;7.20;;;5.50;;
72095;SDS011;59968;51.084;16.748;2022-10-16T16:21:33;7.70;;;6.00;;
72095;SDS011;59968;51.084;16.748;2022-10-16T16:24:05;7.70;;;5.70;;
72095;SDS011;59968;51.084;16.748;2022-10-16T16:26:41;7.10;;;5.60;;
72095;SDS011;59968;51.084;16.748;2022-10-16T16:29:27;7.80;;;5.70;;
72095;SDS011;59968;51.084;16.748;2022-10-16T16:32:03;8.70;;;5.40;;
72095;SDS011;59968;51.084;16.748;2022-10-16T16:34:45;8.50;;;5.80;;
72095;SDS011;59968;51.084;16.748;2022-10-16T16:37:21;11.40;;;6.20;;
72095;SDS011;59968;51.084;16.748;2022-10-16T16:40:00;15.60;;;7.30;;
72095;SDS011;59968;51.084;16.748;2022-10-16T16:42:48;9.20;;;6.70;;
72095;SDS011;59968;51.084;16.748;2022-10-16T16:45:27;11.10;;;6.90;;
72095;SDS011;59968;51.084;16.748;2022-10-16T16:48:04;8.50;;;6.70;;
72095;SDS011;59968;51.084;16.748;2022-10-16T16:50:41;9.40;;;6.70;;
72095;SDS011;59968;51.084;16.748;2022-10-16T16:53:18;9.30;;;6.70;;
72095;SDS011;59968;51.084;16.748;2022-10-16T16:55:51;10.70;;;6.90;;
72095;SDS011;59968;51.084;16.748;2022-10-16T16:58:25;9.50;;;6.90;;
72095;SDS011;59968;51.084;16.748;2022-10-16T17:00:58;10.20;;;6.50;;
72095;SDS011;59968;51.084;16.748;2022-10-16T17:03:51;11.30;;;7.30;;
72095;SDS011;59968;51.084;16.748;2022-10-16T17:06:25;13.10;;;7.40;;
72095;SDS011;59968;51.084;16.748;2022-10-16T17:08:55;10.70;;;7.20;;
72095;SDS011;59968;51.084;16.748;2022-10-16T17:11:31;11.40;;;7.60;;
72095;SDS011;59968;51.084;16.748;2022-10-16T17:14:00;12.10;;;7.20;;
72095;SDS011;59968;51.084;16.748;2022-10-16T17:16:32;10.50;;;7.40;;
72095;SDS011;59968;51.084;16.748;2022-10-16T17:19:07;11.50;;;7.60;;
72095;SDS011;59968;51.084;16.748;2022-10-16T17:21:39;11.80;;;8.60;;
72095;SDS011;59968;51.084;16.748;2022-10-16T17:24:08;13.20;;;8.90;;